Time;durP1;ratioP1;P1;durP2;ratioP2;P2;SDS_P1;SDS_P2;PMS_P1;PMS_P2;Temp;Humidity;BMP_temperature;BMP_pressure;BME280_temperature;BME280_humidity;BME280_pressure;Samples;Min_cycle;Max_cycle;Signal;HPM_P1;HPM_P2
2023/05/25 00:01:47;;;;;;;9.63;2.33;;;;;;;;;;5281956;28;20103;-72
2023/05/25 00:04:20;;;;;;;7.82;2.65;;;;;;;;;;5282442;28;20270;-72
2023/05/25 00:06:52;;;;;;;6.32;2.75;;;;;;;;;;5281074;28;20012;-72
2023/05/25 00:09:23;;;;;;;6.60;2.92;;;;;;;;;;5282378;28;20111;-72
2023/05/25 00:11:54;;;;;;;7.75;3.05;;;;;;;;;;5281818;28;20040;-72
2023/05/25 00:14:26;;;;;;;7.28;2.67;;;;;;;;;;5281341;28;20074;-72
2023/05/25 00:16:57;;;;;;;6.85;2.42;;;;;;;;;;5281948;28;20487;-72
2023/05/25 00:19:31;;;;;;;7.85;2.65;;;;;;;;;;5281635;28;20020;-73
2023/05/25 00:22:02;;;;;;;9.10;2.50;;;;;;;;;;5282089;28;20017;-72
2023/05/25 00:24:33;;;;;;;6.68;2.38;;;;;;;;;;5281851;28;20054;-72
2023/05/25 00:27:06;;;;;;;6.18;2.90;;;;;;;;;;5281073;28;20044;-72
2023/05/25 00:29:37;;;;;;;8.43;2.85;;;;;;;;;;5281662;28;20297;-73
2023/05/25 00:32:08;;;;;;;8.20;2.63;;;;;;;;;;5282047;28;20472;-72
2023/05/25 00:34:39;;;;;;;8.45;2.70;;;;;;;;;;5280994;28;20055;-72
2023/05/25 00:37:10;;;;;;;8.10;2.65;;;;;;;;;;5282079;28;20378;-72
2023/05/25 00:39:42;;;;;;;7.95;2.70;;;;;;;;;;5280425;28;20032;-72
2023/05/25 00:42:13;;;;;;;5.97;1.95;;;;;;;;;;5281249;28;20277;-72
2023/05/25 00:44:44;;;;;;;6.97;2.50;;;;;;;;;;5281361;28;20467;-72
2023/05/25 00:47:16;;;;;;;9.52;2.33;;;;;;;;;;5281286;28;20419;-72
2023/05/25 00:49:48;;;;;;;7.65;2.42;;;;;;;;;;5281096;28;20064;-72
2023/05/25 00:52:19;;;;;;;9.02;2.70;;;;;;;;;;5281864;28;20017;-72
2023/05/25 00:54:52;;;;;;;6.03;2.70;;;;;;;;;;5280639;28;20078;-72
2023/05/25 00:57:24;;;;;;;8.27;2.28;;;;;;;;;;5281928;28;20009;-72
2023/05/25 00:59:56;;;;;;;12.10;2.50;;;;;;;;;;5281094;28;20048;-72
2023/05/25 01:02:28;;;;;;;6.22;2.40;;;;;;;;;;5280953;28;20028;-72
2023/05/25 01:05:00;;;;;;;9.13;2.40;;;;;;;;;;5281147;28;20017;-72
2023/05/25 01:07:31;;;;;;;5.40;2.05;;;;;;;;;;5281556;28;20435;-72
2023/05/25 01:10:05;;;;;;;5.57;1.90;;;;;;;;;;5280518;28;20066;-71
2023/05/25 01:12:38;;;;;;;8.23;2.50;;;;;;;;;;5281348;28;20016;-72
2023/05/25 01:15:09;;;;;;;6.43;2.20;;;;;;;;;;5281523;28;20028;-72
2023/05/25 01:17:41;;;;;;;7.28;2.38;;;;;;;;;;5280434;28;20020;-72
2023/05/25 01:20:12;;;;;;;6.57;2.30;;;;;;;;;;5281864;28;20024;-72
2023/05/25 01:22:49;;;;;;;7.40;2.53;;;;;;;;;;5280288;28;20020;-72
2023/05/25 01:25:32;;;;;;;9.40;2.55;;;;;;;;;;5281460;28;20017;-72
2023/05/25 01:28:06;;;;;;;4.85;1.88;;;;;;;;;;5281384;28;20024;-72
2023/05/25 01:30:38;;;;;;;6.85;2.35;;;;;;;;;;5280468;28;20029;-72
2023/05/25 01:33:10;;;;;;;5.35;1.95;;;;;;;;;;5281385;28;20059;-72
2023/05/25 01:35:41;;;;;;;5.65;2.10;;;;;;;;;;5280811;28;20098;-72
2023/05/25 01:38:13;;;;;;;11.52;2.70;;;;;;;;;;5280559;28;20024;-72
2023/05/25 01:40:44;;;;;;;6.30;2.25;;;;;;;;;;5280797;28;20375;-72
2023/05/25 01:43:15;;;;;;;9.73;2.03;;;;;;;;;;5281486;28;20437;-72
2023/05/25 01:45:47;;;;;;;5.72;2.08;;;;;;;;;;5279984;28;20029;-72
2023/05/25 01:48:25;;;;;;;6.40;1.80;;;;;;;;;;5281249;28;20028;-72
2023/05/25 01:51:25;;;;;;;8.20;2.40;;;;;;;;;;5282673;28;20111;-72
2023/05/25 01:54:02;;;;;;;7.68;2.28;;;;;;;;;;5247318;28;20467;-72
2023/05/25 01:56:34;;;;;;;6.10;2.45;;;;;;;;;;5284446;28;20024;-72
2023/05/25 01:59:06;;;;;;;7.45;2.17;;;;;;;;;;5283802;28;20031;-71
2023/05/25 02:01:39;;;;;;;5.30;2.15;;;;;;;;;;5284931;28;20534;-71
2023/05/25 02:04:11;;;;;;;9.10;2.97;;;;;;;;;;5284830;28;20024;-72
2023/05/25 02:06:42;;;;;;;8.23;2.83;;;;;;;;;;5283442;28;20395;-72
2023/05/25 02:09:13;;;;;;;6.75;2.38;;;;;;;;;;5284695;28;20053;-72
2023/05/25 02:11:44;;;;;;;8.15;2.63;;;;;;;;;;5283393;28;20025;-71
2023/05/25 02:14:16;;;;;;;6.93;1.98;;;;;;;;;;5284721;28;20024;-72
2023/05/25 02:16:47;;;;;;;8.32;2.67;;;;;;;;;;5283875;28;20021;-72
2023/05/25 02:19:18;;;;;;;5.82;2.53;;;;;;;;;;5283650;28;20024;-72
2023/05/25 02:21:49;;;;;;;5.53;2.35;;;;;;;;;;5283813;28;20451;-72
2023/05/25 02:24:22;;;;;;;4.93;2.38;;;;;;;;;;5284541;28;20021;-72
2023/05/25 02:26:53;;;;;;;5.72;1.98;;;;;;;;;;5283026;28;20020;-72
2023/05/25 02:29:24;;;;;;;6.07;2.30;;;;;;;;;;5284301;28;20028;-72
2023/05/25 02:31:56;;;;;;;6.95;2.25;;;;;;;;;;5283587;28;20028;-71
2023/05/25 02:34:27;;;;;;;7.07;2.67;;;;;;;;;;5283615;28;20374;-72
2023/05/25 02:36:59;;;;;;;8.85;2.38;;;;;;;;;;5283785;28;20107;-72
2023/05/25 02:39:30;;;;;;;6.32;2.50;;;;;;;;;;5283837;28;20020;-72
2023/05/25 02:42:02;;;;;;;5.35;2.47;;;;;;;;;;5282979;28;20153;-72
2023/05/25 02:44:33;;;;;;;9.00;3.17;;;;;;;;;;5283559;28;20024;-72
2023/05/25 02:47:05;;;;;;;9.65;3.10;;;;;;;;;;5283110;28;20027;-72
2023/05/25 02:49:36;;;;;;;6.97;2.67;;;;;;;;;;5283597;28;20040;-71
2023/05/25 02:52:07;;;;;;;6.95;2.42;;;;;;;;;;5283753;28;20021;-71
2023/05/25 02:54:39;;;;;;;5.75;2.22;;;;;;;;;;5282505;28;20021;-72
2023/05/25 02:57:10;;;;;;;6.82;2.63;;;;;;;;;;5283756;28;20044;-70
2023/05/25 02:59:41;;;;;;;4.78;2.38;;;;;;;;;;5282982;28;20051;-71
2023/05/25 03:02:13;;;;;;;5.20;2.58;;;;;;;;;;5282212;28;20258;-73
2023/05/25 03:04:44;;;;;;;6.72;3.38;;;;;;;;;;5283087;28;20111;-72
2023/05/25 03:07:16;;;;;;;4.88;3.10;;;;;;;;;;5283537;28;20035;-72
2023/05/25 03:09:47;;;;;;;8.95;3.80;;;;;;;;;;5281797;28;20024;-72
2023/05/25 03:12:18;;;;;;;9.52;3.72;;;;;;;;;;5283452;28;20258;-72
2023/05/25 03:14:49;;;;;;;7.35;3.72;;;;;;;;;;5282650;28;20068;-73
2023/05/25 03:17:20;;;;;;;7.80;3.70;;;;;;;;;;5282592;28;20021;-73
2023/05/25 03:19:52;;;;;;;6.38;3.47;;;;;;;;;;5282542;28;20045;-72
2023/05/25 03:22:23;;;;;;;5.60;3.42;;;;;;;;;;5282579;28;20020;-72
2023/05/25 03:24:54;;;;;;;5.82;3.10;;;;;;;;;;5282722;28;20096;-72
2023/05/25 03:27:25;;;;;;;10.10;4.78;;;;;;;;;;5283135;28;20021;-72
2023/05/25 03:29:56;;;;;;;7.20;4.00;;;;;;;;;;5281486;28;20033;-72
2023/05/25 03:32:28;;;;;;;11.38;4.25;;;;;;;;;;5282673;28;20021;-72
2023/05/25 03:34:59;;;;;;;7.26;3.64;;;;;;;;;;5282399;28;20101;-72
2023/05/25 03:37:30;;;;;;;8.18;3.70;;;;;;;;;;5281759;28;20039;-72
2023/05/25 03:40:01;;;;;;;8.65;3.90;;;;;;;;;;5282331;28;20088;-72
2023/05/25 03:42:32;;;;;;;8.27;4.05;;;;;;;;;;5282280;28;20468;-72
2023/05/25 03:45:04;;;;;;;6.30;3.80;;;;;;;;;;5281500;28;20463;-72
2023/05/25 03:47:36;;;;;;;6.68;3.90;;;;;;;;;;5282619;28;20727;-73
2023/05/25 03:50:07;;;;;;;8.13;4.10;;;;;;;;;;5281388;28;20024;-72
2023/05/25 03:52:38;;;;;;;7.13;4.47;;;;;;;;;;5282189;28;20478;-72
2023/05/25 03:55:09;;;;;;;6.20;3.83;;;;;;;;;;5282346;28;20025;-72
2023/05/25 03:57:40;;;;;;;8.82;4.72;;;;;;;;;;5280994;28;20012;-72
2023/05/25 04:00:12;;;;;;;7.95;4.38;;;;;;;;;;5282205;28;20044;-72
2023/05/25 04:02:43;;;;;;;8.10;4.65;;;;;;;;;;5281750;28;20470;-72
2023/05/25 04:05:14;;;;;;;10.93;4.63;;;;;;;;;;5281550;28;20028;-71
2023/05/25 04:07:47;;;;;;;7.45;4.25;;;;;;;;;;5281773;28;20410;-72
2023/05/25 04:10:18;;;;;;;9.07;4.60;;;;;;;;;;5282436;28;20119;-71
2023/05/25 04:12:50;;;;;;;6.30;3.85;;;;;;;;;;5280959;28;20079;-71
2023/05/25 04:15:21;;;;;;;6.97;4.50;;;;;;;;;;5282206;28;20150;-71
2023/05/25 04:17:53;;;;;;;9.82;4.90;;;;;;;;;;5281673;28;20495;-72
2023/05/25 04:20:25;;;;;;;10.65;5.57;;;;;;;;;;5281382;28;20013;-72
2023/05/25 04:22:56;;;;;;;9.85;4.85;;;;;;;;;;5281585;28;20025;-72
2023/05/25 04:25:27;;;;;;;7.72;4.55;;;;;;;;;;5281422;28;20462;-72
2023/05/25 04:27:59;;;;;;;8.23;4.60;;;;;;;;;;5281391;28;20039;-72
2023/05/25 04:30:30;;;;;;;9.20;4.72;;;;;;;;;;5281655;28;20379;-71
2023/05/25 04:33:02;;;;;;;8.57;4.68;;;;;;;;;;5280985;28;20066;-71
2023/05/25 04:35:33;;;;;;;8.00;4.15;;;;;;;;;;5281678;28;20020;-72
2023/05/25 04:38:05;;;;;;;7.32;4.40;;;;;;;;;;5281746;28;20375;-72
2023/05/25 04:40:40;;;;;;;10.07;4.45;;;;;;;;;;5280964;28;20020;-72
2023/05/25 04:43:12;;;;;;;8.98;4.22;;;;;;;;;;5281769;28;20020;-72
2023/05/25 04:45:44;;;;;;;9.98;4.43;;;;;;;;;;5281500;28;20066;-72
2023/05/25 04:48:16;;;;;;;8.57;4.55;;;;;;;;;;5281124;28;20238;-72
2023/05/25 04:50:47;;;;;;;8.27;4.85;;;;;;;;;;5281204;28;20021;-72
2023/05/25 04:53:19;;;;;;;10.50;4.43;;;;;;;;;;5281501;28;20020;-72
2023/05/25 04:55:50;;;;;;;10.77;4.20;;;;;;;;;;5280827;28;20016;-72
2023/05/25 04:58:21;;;;;;;9.77;4.95;;;;;;;;;;5281943;28;20032;-72
2023/05/25 05:00:52;;;;;;;8.10;4.15;;;;;;;;;;5280185;28;20068;-72
2023/05/25 05:03:23;;;;;;;8.73;4.10;;;;;;;;;;5281687;28;20024;-72
2023/05/25 05:05:55;;;;;;;7.57;3.67;;;;;;;;;;5281161;28;20020;-72
2023/05/25 05:08:26;;;;;;;8.00;4.28;;;;;;;;;;5280723;28;20024;-72
2023/05/25 05:10:58;;;;;;;9.25;3.92;;;;;;;;;;5281163;28;20025;-73
2023/05/25 05:13:29;;;;;;;7.90;3.63;;;;;;;;;;5281515;28;20115;-72
2023/05/25 05:16:00;;;;;;;8.57;3.85;;;;;;;;;;5280515;28;20021;-73
2023/05/25 05:18:31;;;;;;;9.35;3.97;;;;;;;;;;5281084;28;20063;-72
2023/05/25 05:21:02;;;;;;;11.35;3.85;;;;;;;;;;5281456;28;20013;-73
2023/05/25 05:23:34;;;;;;;9.02;4.22;;;;;;;;;;5280494;28;20271;-73
2023/05/25 05:26:09;;;;;;;5.35;3.08;;;;;;;;;;5284148;28;20028;-73
2023/05/25 05:28:40;;;;;;;6.50;3.10;;;;;;;;;;5283911;28;20122;-72
2023/05/25 05:31:12;;;;;;;6.72;3.40;;;;;;;;;;5285291;28;20107;-72
2023/05/25 05:33:43;;;;;;;6.83;3.43;;;;;;;;;;5284913;28;20021;-73
2023/05/25 05:36:14;;;;;;;8.50;3.45;;;;;;;;;;5284516;28;20302;-72
2023/05/25 05:38:45;;;;;;;7.07;3.63;;;;;;;;;;5284524;28;20029;-73
2023/05/25 05:41:17;;;;;;;10.80;4.35;;;;;;;;;;5284891;28;20388;-73
2023/05/25 05:43:48;;;;;;;8.07;3.30;;;;;;;;;;5283523;28;20856;-72
2023/05/25 05:46:19;;;;;;;8.50;3.63;;;;;;;;;;5285029;28;20753;-73
2023/05/25 05:48:50;;;;;;;10.05;4.05;;;;;;;;;;5284353;28;20017;-73
2023/05/25 05:51:21;;;;;;;7.20;2.97;;;;;;;;;;5284070;28;20082;-73
2023/05/25 05:53:52;;;;;;;6.25;2.17;;;;;;;;;;5284296;28;20099;-73
2023/05/25 05:56:25;;;;;;;8.40;2.88;;;;;;;;;;5284770;28;20282;-72
2023/05/25 05:58:56;;;;;;;9.38;3.63;;;;;;;;;;5283401;28;20021;-72
2023/05/25 06:01:27;;;;;;;8.30;3.55;;;;;;;;;;5284833;28;20029;-72
2023/05/25 06:03:58;;;;;;;7.47;2.38;;;;;;;;;;5283387;28;20449;-72
2023/05/25 06:06:31;;;;;;;7.07;2.08;;;;;;;;;;5284259;28;20074;-72
2023/05/25 06:09:05;;;;;;;8.02;2.88;;;;;;;;;;5284373;28;20692;-72
2023/05/25 06:11:38;;;;;;;8.25;3.30;;;;;;;;;;5283385;28;20062;-72
2023/05/25 06:14:10;;;;;;;8.60;2.90;;;;;;;;;;5284768;28;20024;-75
2023/05/25 06:16:42;;;;;;;9.30;2.55;;;;;;;;;;5283804;28;20016;-72
2023/05/25 06:19:13;;;;;;;6.57;2.28;;;;;;;;;;5283640;28;20048;-73
2023/05/25 06:21:45;;;;;;;11.73;3.75;;;;;;;;;;5283563;28;20411;-72
2023/05/25 06:24:16;;;;;;;10.20;3.13;;;;;;;;;;5284432;28;20027;-71
2023/05/25 06:26:47;;;;;;;7.15;2.60;;;;;;;;;;5282476;28;20020;-71
2023/05/25 06:29:18;;;;;;;8.35;2.92;;;;;;;;;;5284071;28;20070;-72
2023/05/25 06:31:49;;;;;;;8.32;3.22;;;;;;;;;;5282495;28;20048;-71
2023/05/25 06:34:20;;;;;;;12.68;3.28;;;;;;;;;;5283918;28;20278;-71
2023/05/25 06:36:52;;;;;;;8.90;3.08;;;;;;;;;;5282197;28;20349;-72
2023/05/25 06:39:23;;;;;;;9.02;3.58;;;;;;;;;;5283583;28;20645;-72
2023/05/25 06:41:54;;;;;;;6.53;2.53;;;;;;;;;;5283432;28;20099;-72
2023/05/25 06:44:25;;;;;;;7.55;2.60;;;;;;;;;;5283748;28;20321;-71
2023/05/25 06:46:56;;;;;;;7.63;2.80;;;;;;;;;;5282558;28;20025;-72
2023/05/25 06:49:28;;;;;;;7.67;3.13;;;;;;;;;;5283598;28;20082;-71
2023/05/25 06:51:59;;;;;;;7.55;2.78;;;;;;;;;;5283138;28;20267;-71
2023/05/25 06:54:30;;;;;;;6.30;2.20;;;;;;;;;;5282432;28;20024;-72
2023/05/25 06:57:01;;;;;;;5.93;2.05;;;;;;;;;;5283169;28;20020;-71
2023/05/25 06:59:32;;;;;;;6.88;2.60;;;;;;;;;;5281947;28;20286;-71
2023/05/25 07:02:04;;;;;;;5.70;1.95;;;;;;;;;;5281854;28;20040;-71
2023/05/25 07:04:35;;;;;;;6.70;2.45;;;;;;;;;;5283082;28;20282;-71
2023/05/25 07:07:08;;;;;;;5.60;2.05;;;;;;;;;;5282205;28;20040;-71
2023/05/25 07:09:40;;;;;;;8.27;2.88;;;;;;;;;;5282725;28;20028;-73
2023/05/25 07:12:11;;;;;;;7.70;2.70;;;;;;;;;;5283368;28;20372;-70
2023/05/25 07:14:46;;;;;;;8.10;2.60;;;;;;;;;;5281974;28;20016;-70
2023/05/25 07:17:18;;;;;;;6.50;2.80;;;;;;;;;;5283034;28;20134;-71
2023/05/25 07:19:49;;;;;;;7.88;3.40;;;;;;;;;;5282468;28;20043;-71
2023/05/25 07:22:22;;;;;;;7.65;2.28;;;;;;;;;;5282327;28;20074;-70
2023/05/25 07:24:53;;;;;;;8.23;2.90;;;;;;;;;;5282384;28;20519;-70
2023/05/25 07:27:24;;;;;;;11.38;3.15;;;;;;;;;;5283300;28;20111;-71
2023/05/25 07:29:55;;;;;;;10.33;2.83;;;;;;;;;;5281378;28;20032;-71
2023/05/25 07:32:27;;;;;;;8.00;2.67;;;;;;;;;;5282771;28;20259;-71
2023/05/25 07:34:58;;;;;;;6.40;2.43;;;;;;;;;;5282364;28;20883;-71
2023/05/25 07:37:29;;;;;;;7.00;2.33;;;;;;;;;;5281793;28;20618;-71
2023/05/25 07:40:00;;;;;;;6.50;2.30;;;;;;;;;;5282435;28;20031;-71
2023/05/25 07:42:33;;;;;;;8.40;2.90;;;;;;;;;;5281293;28;20108;-70
2023/05/25 07:45:04;;;;;;;9.40;2.90;;;;;;;;;;5282508;28;20024;-70
2023/05/25 07:47:35;;;;;;;8.52;2.30;;;;;;;;;;5281738;28;20101;-70
2023/05/25 07:50:07;;;;;;;7.60;2.70;;;;;;;;;;5281446;28;20443;-70
2023/05/25 07:52:38;;;;;;;7.38;2.45;;;;;;;;;;5281749;28;20171;-71
2023/05/25 07:55:10;;;;;;;6.28;2.05;;;;;;;;;;5277537;28;20463;-70
2023/05/25 07:57:41;;;;;;;9.88;2.35;;;;;;;;;;5280513;28;20021;-70
2023/05/25 08:00:12;;;;;;;9.07;2.60;;;;;;;;;;5281952;28;20479;-70
2023/05/25 08:02:43;;;;;;;9.88;2.97;;;;;;;;;;5281501;28;20052;-71
2023/05/25 08:05:15;;;;;;;9.60;2.60;;;;;;;;;;5279986;28;20020;-71
2023/05/25 08:07:46;;;;;;;7.00;2.35;;;;;;;;;;5281571;28;20009;-70
2023/05/25 08:10:17;;;;;;;7.93;2.73;;;;;;;;;;5280687;28;20030;-71
2023/05/25 08:12:48;;;;;;;11.32;3.40;;;;;;;;;;5279161;28;20432;-71
2023/05/25 08:15:20;;;;;;;9.77;2.53;;;;;;;;;;5280854;28;20029;-71
2023/05/25 08:17:51;;;;;;;8.93;2.83;;;;;;;;;;5277127;28;20154;-70
2023/05/25 08:20:23;;;;;;;9.00;2.88;;;;;;;;;;5281499;28;20058;-70
2023/05/25 08:22:55;;;;;;;7.53;2.83;;;;;;;;;;5280989;28;20009;-70
2023/05/25 08:25:26;;;;;;;7.85;3.33;;;;;;;;;;5280553;28;20479;-70
2023/05/25 08:27:57;;;;;;;4.60;1.95;;;;;;;;;;5281074;28;20021;-71
2023/05/25 08:30:29;;;;;;;9.27;3.07;;;;;;;;;;5279493;28;20025;-70
2023/05/25 08:33:00;;;;;;;8.95;2.45;;;;;;;;;;5280907;28;20312;-70
2023/05/25 08:35:31;;;;;;;7.00;2.33;;;;;;;;;;5281777;28;20051;-70
2023/05/25 08:38:03;;;;;;;11.38;2.58;;;;;;;;;;5281641;28;20262;-70
2023/05/25 08:40:34;;;;;;;9.63;2.28;;;;;;;;;;5280854;28;20074;-70
2023/05/25 08:43:05;;;;;;;9.20;2.10;;;;;;;;;;5281527;28;20028;-70
2023/05/25 08:45:36;;;;;;;7.88;2.13;;;;;;;;;;5280752;28;20043;-70
2023/05/25 08:48:09;;;;;;;8.65;2.30;;;;;;;;;;5281439;28;20266;-70
2023/05/25 08:50:41;;;;;;;7.60;2.35;;;;;;;;;;5281036;28;20028;-70
2023/05/25 08:53:15;;;;;;;7.85;1.75;;;;;;;;;;5280936;28;20017;-69
2023/05/25 08:55:47;;;;;;;8.70;1.50;;;;;;;;;;5281350;28;20031;-70
2023/05/25 08:58:19;;;;;;;8.75;1.63;;;;;;;;;;5281744;28;20013;-69
2023/05/25 09:00:56;;;;;;;7.07;1.50;;;;;;;;;;5283029;28;20507;-70
2023/05/25 09:03:28;;;;;;;5.75;1.75;;;;;;;;;;5285607;28;20013;-72
2023/05/25 09:05:59;;;;;;;5.93;1.30;;;;;;;;;;5285226;28;20424;-71
2023/05/25 09:08:31;;;;;;;8.43;1.90;;;;;;;;;;5284926;28;20020;-72
2023/05/25 09:11:02;;;;;;;7.05;1.83;;;;;;;;;;5285525;28;20071;-72
2023/05/25 09:13:35;;;;;;;8.48;1.52;;;;;;;;;;5284867;28;20024;-72
2023/05/25 09:16:06;;;;;;;7.18;1.83;;;;;;;;;;5285201;28;20036;-71
2023/05/25 09:18:37;;;;;;;7.32;1.98;;;;;;;;;;5285359;28;20371;-71
2023/05/25 09:21:08;;;;;;;11.57;2.03;;;;;;;;;;5284516;28;20012;-71
2023/05/25 09:23:40;;;;;;;13.20;2.40;;;;;;;;;;5284874;28;20017;-72
2023/05/25 09:26:12;;;;;;;7.82;1.48;;;;;;;;;;5285406;28;20280;-70
2023/05/25 09:28:44;;;;;;;9.23;2.20;;;;;;;;;;5283689;28;20025;-71
2023/05/25 09:31:15;;;;;;;7.50;1.65;;;;;;;;;;5285452;28;20123;-71
2023/05/25 09:33:46;;;;;;;7.57;2.25;;;;;;;;;;5284537;28;20095;-72
2023/05/25 09:36:20;;;;;;;8.67;1.50;;;;;;;;;;5284140;28;20375;-71
2023/05/25 09:38:53;;;;;;;7.55;1.77;;;;;;;;;;5284080;28;20262;-71
2023/05/25 09:41:26;;;;;;;7.07;1.60;;;;;;;;;;5285014;28;20101;-71
2023/05/25 09:43:57;;;;;;;8.45;1.60;;;;;;;;;;5283407;28;20035;-71
2023/05/25 09:46:31;;;;;;;8.55;2.38;;;;;;;;;;5284950;28;20384;-71
2023/05/25 09:49:03;;;;;;;6.50;1.60;;;;;;;;;;5283623;28;20497;-71
2023/05/25 09:51:35;;;;;;;7.57;1.35;;;;;;;;;;5284549;28;20434;-71
2023/05/25 09:54:08;;;;;;;8.70;1.52;;;;;;;;;;5284223;28;20095;-71
2023/05/25 09:56:40;;;;;;;9.50;1.63;;;;;;;;;;5283402;28;20019;-71
2023/05/25 09:59:11;;;;;;;7.15;1.63;;;;;;;;;;5284307;28;20029;-71
2023/05/25 10:01:43;;;;;;;8.13;1.75;;;;;;;;;;5284034;28;20016;-71
2023/05/25 10:04:15;;;;;;;9.02;1.50;;;;;;;;;;5283802;28;20364;-70
2023/05/25 10:06:48;;;;;;;8.95;1.63;;;;;;;;;;5283935;28;20034;-72
2023/05/25 10:09:20;;;;;;;7.80;1.38;;;;;;;;;;5284591;28;20019;-72
2023/05/25 10:11:52;;;;;;;6.47;1.50;;;;;;;;;;5282925;28;20036;-72
2023/05/25 10:14:27;;;;;;;10.00;2.17;;;;;;;;;;5284089;28;20017;-73
2023/05/25 10:17:00;;;;;;;8.52;1.55;;;;;;;;;;5282878;28;20718;-70
2023/05/25 10:19:45;;;;;;;7.03;1.52;;;;;;;;;;5282144;28;20017;-70
2023/05/25 10:22:23;;;;;;;7.47;1.05;;;;;;;;;;5282110;28;20165;-71
2023/05/25 10:25:12;;;;;;;5.45;1.75;;;;;;;;;;5280599;28;20012;-71
2023/05/25 10:27:49;;;;;;;8.90;1.73;;;;;;;;;;5282662;28;20471;-71
2023/05/25 10:30:20;;;;;;;7.18;1.52;;;;;;;;;;5283846;28;20115;-71
2023/05/25 10:32:53;;;;;;;9.85;1.80;;;;;;;;;;5282781;28;20104;-70
2023/05/25 10:35:25;;;;;;;7.93;2.08;;;;;;;;;;5284154;28;20021;-71
2023/05/25 10:37:57;;;;;;;7.22;1.63;;;;;;;;;;5283375;28;20023;-72
2023/05/25 10:40:28;;;;;;;11.57;2.03;;;;;;;;;;5283821;28;20021;-72
2023/05/25 10:42:59;;;;;;;7.93;2.17;;;;;;;;;;5283426;28;20077;-71
2023/05/25 10:45:31;;;;;;;6.63;1.35;;;;;;;;;;5282887;28;20017;-71
2023/05/25 10:48:02;;;;;;;7.45;1.10;;;;;;;;;;5283515;28;20028;-71
2023/05/25 10:50:34;;;;;;;9.30;1.67;;;;;;;;;;5283518;28;20033;-71
2023/05/25 10:53:06;;;;;;;11.52;1.08;;;;;;;;;;5282616;28;20046;-71
2023/05/25 10:55:50;;;;;;;7.95;1.40;;;;;;;;;;5283385;28;20046;-71
2023/05/25 10:58:22;;;;;;;9.55;1.65;;;;;;;;;;5283624;28;20099;-71
2023/05/25 11:01:01;;;;;;;6.78;1.45;;;;;;;;;;5282098;28;20127;-71
2023/05/25 11:03:51;;;;;;;7.63;1.63;;;;;;;;;;5283181;28;20013;-70
2023/05/25 11:06:43;;;;;;;4.60;1.10;;;;;;;;;;5282587;28;20028;-71
2023/05/25 11:09:24;;;;;;;8.45;1.60;;;;;;;;;;5283556;28;20036;-72
2023/05/25 11:11:57;;;;;;;7.20;1.63;;;;;;;;;;5282819;28;20020;-71
2023/05/25 11:14:29;;;;;;;7.15;1.50;;;;;;;;;;5282514;28;20028;-71
2023/05/25 11:17:09;;;;;;;5.53;1.15;;;;;;;;;;5282812;28;20525;-71
2023/05/25 11:19:46;;;;;;;6.50;1.77;;;;;;;;;;5282851;28;20021;-71
2023/05/25 11:22:20;;;;;;;6.93;1.58;;;;;;;;;;5281302;28;20071;-70
2023/05/25 11:24:52;;;;;;;5.53;1.35;;;;;;;;;;5282348;28;20033;-71
2023/05/25 11:27:24;;;;;;;9.00;1.52;;;;;;;;;;5282017;28;20032;-71
2023/05/25 11:29:56;;;;;;;5.75;1.23;;;;;;;;;;5282249;28;20455;-71
2023/05/25 11:32:28;;;;;;;8.43;1.48;;;;;;;;;;5282763;28;20017;-71
2023/05/25 11:34:59;;;;;;;11.55;1.70;;;;;;;;;;5281503;28;20439;-72
2023/05/25 11:37:32;;;;;;;8.55;1.20;;;;;;;;;;5282405;28;20032;-71
2023/05/25 11:40:05;;;;;;;6.78;1.45;;;;;;;;;;5282301;28;20025;-71
2023/05/25 11:42:37;;;;;;;7.93;2.08;;;;;;;;;;5281489;28;20025;-71
2023/05/25 11:45:13;;;;;;;7.80;1.58;;;;;;;;;;5282499;28;20078;-71
2023/05/25 11:47:44;;;;;;;7.55;1.42;;;;;;;;;;5281878;28;20111;-71
2023/05/25 11:50:16;;;;;;;5.93;1.50;;;;;;;;;;5280471;28;20127;-72
2023/05/25 11:52:47;;;;;;;8.88;1.88;;;;;;;;;;5279712;28;20737;-72
2023/05/25 11:55:18;;;;;;;11.43;2.20;;;;;;;;;;5280394;28;20402;-72
2023/05/25 11:57:56;;;;;;;4.45;1.08;;;;;;;;;;5279573;28;20349;-72
2023/05/25 12:00:27;;;;;;;7.55;2.05;;;;;;;;;;5280322;28;20040;-72
2023/05/25 12:02:58;;;;;;;5.15;1.30;;;;;;;;;;5278851;28;20030;-72
2023/05/25 12:05:38;;;;;;;7.73;1.87;;;;;;;;;;5279867;28;20048;-72
2023/05/25 12:08:10;;;;;;;7.47;1.65;;;;;;;;;;5280055;28;20296;-72
2023/05/25 12:10:48;;;;;;;5.10;1.30;;;;;;;;;;5278992;28;20024;-72
2023/05/25 12:13:19;;;;;;;7.63;1.90;;;;;;;;;;5279790;28;20028;-72
2023/05/25 12:15:51;;;;;;;6.60;1.43;;;;;;;;;;5279553;28;20137;-72
2023/05/25 12:18:22;;;;;;;6.07;1.35;;;;;;;;;;5280232;28;20278;-71
2023/05/25 12:20:55;;;;;;;5.85;1.83;;;;;;;;;;5281519;28;20020;-72
2023/05/25 12:23:26;;;;;;;8.13;1.90;;;;;;;;;;5281481;28;20025;-72
2023/05/25 12:26:05;;;;;;;5.50;1.83;;;;;;;;;;5281215;28;20115;-72
2023/05/25 12:28:36;;;;;;;7.78;1.67;;;;;;;;;;5281724;28;20338;-73
2023/05/25 12:31:21;;;;;;;8.52;1.80;;;;;;;;;;5280807;28;20174;-72
2023/05/25 12:34:11;;;;;;;11.00;2.35;;;;;;;;;;5281253;28;20066;-72
2023/05/25 12:36:52;;;;;;;8.25;1.95;;;;;;;;;;5281384;28;20032;-72
2023/05/25 12:39:29;;;;;;;7.22;2.03;;;;;;;;;;5281044;28;20056;-71
2023/05/25 12:42:01;;;;;;;7.40;1.65;;;;;;;;;;5281603;28;20479;-72
2023/05/25 12:44:33;;;;;;;5.45;1.77;;;;;;;;;;5281195;28;20016;-71
2023/05/25 12:47:15;;;;;;;7.90;1.95;;;;;;;;;;5281489;28;20052;-71
2023/05/25 12:49:46;;;;;;;7.63;2.05;;;;;;;;;;5281104;28;20028;-72
2023/05/25 12:52:33;;;;;;;6.78;1.73;;;;;;;;;;5280952;28;20019;-72
2023/05/25 12:55:26;;;;;;;10.02;2.53;;;;;;;;;;5281320;28;20590;-72
2023/05/25 12:58:01;;;;;;;8.90;2.13;;;;;;;;;;5281121;28;20369;-72
2023/05/25 13:00:36;;;;;;;8.43;2.00;;;;;;;;;;5280224;28;20106;-72
2023/05/25 13:03:07;;;;;;;6.25;2.20;;;;;;;;;;5281130;28;20028;-72
2023/05/25 13:05:39;;;;;;;11.90;2.05;;;;;;;;;;5280460;28;20024;-72
2023/05/25 13:08:10;;;;;;;9.82;2.28;;;;;;;;;;5281009;28;20048;-72
2023/05/25 13:10:41;;;;;;;5.97;1.58;;;;;;;;;;5280702;28;20369;-72
2023/05/25 13:13:12;;;;;;;9.02;2.25;;;;;;;;;;5280655;28;20749;-72
2023/05/25 13:15:43;;;;;;;6.18;1.98;;;;;;;;;;5280860;28;20028;-72
2023/05/25 13:18:14;;;;;;;6.72;2.28;;;;;;;;;;5281582;28;20263;-72
2023/05/25 13:20:46;;;;;;;6.60;2.20;;;;;;;;;;5280379;28;20017;-72
2023/05/25 13:23:17;;;;;;;9.15;2.45;;;;;;;;;;5281452;28;20270;-72
2023/05/25 13:25:48;;;;;;;7.40;1.90;;;;;;;;;;5280832;28;20689;-72
2023/05/25 13:28:19;;;;;;;7.40;1.88;;;;;;;;;;5280505;28;20020;-72
2023/05/25 13:30:50;;;;;;;4.45;1.30;;;;;;;;;;5280693;28;20029;-72
2023/05/25 13:33:22;;;;;;;6.72;1.48;;;;;;;;;;5281526;28;20013;-72
2023/05/25 13:36:06;;;;;;;7.63;1.50;;;;;;;;;;5279814;28;20277;-72
2023/05/25 13:38:37;;;;;;;5.15;1.42;;;;;;;;;;5280813;28;20396;-72
2023/05/25 13:41:09;;;;;;;3.93;1.50;;;;;;;;;;5280063;28;20575;-72
2023/05/25 13:43:40;;;;;;;6.43;1.40;;;;;;;;;;5280638;28;20629;-72
2023/05/25 13:46:11;;;;;;;8.15;2.03;;;;;;;;;;5282833;28;20464;-72
2023/05/25 13:48:46;;;;;;;7.20;1.63;;;;;;;;;;5283686;28;20017;-72
2023/05/25 13:51:17;;;;;;;10.07;1.58;;;;;;;;;;5284839;28;20544;-73
2023/05/25 13:53:48;;;;;;;4.78;1.50;;;;;;;;;;5284498;28;20021;-72
2023/05/25 13:56:19;;;;;;;4.35;1.25;;;;;;;;;;5284254;28;20012;-72
2023/05/25 13:58:51;;;;;;;5.07;1.87;;;;;;;;;;5284271;28;20066;-72
2023/05/25 14:01:23;;;;;;;4.05;1.10;;;;;;;;;;5284453;28;20294;-72
2023/05/25 14:03:55;;;;;;;4.45;1.60;;;;;;;;;;5283592;28;20100;-71
2023/05/25 14:06:26;;;;;;;7.60;1.58;;;;;;;;;;5284771;28;20103;-71
2023/05/25 14:08:57;;;;;;;6.57;1.80;;;;;;;;;;5283457;28;20328;-71
2023/05/25 14:11:28;;;;;;;8.70;1.60;;;;;;;;;;5284446;28;20028;-72
2023/05/25 14:13:59;;;;;;;6.63;1.10;;;;;;;;;;5283962;28;20013;-72
2023/05/25 14:16:31;;;;;;;5.03;1.70;;;;;;;;;;5283389;28;20282;-71
2023/05/25 14:19:02;;;;;;;4.32;1.25;;;;;;;;;;5284039;28;20699;-72
2023/05/25 14:21:33;;;;;;;6.03;1.35;;;;;;;;;;5284126;28;20418;-71
2023/05/25 14:24:05;;;;;;;5.53;1.43;;;;;;;;;;5283047;28;20024;-72
2023/05/25 14:26:36;;;;;;;4.05;1.40;;;;;;;;;;5283920;28;20305;-70
2023/05/25 14:29:07;;;;;;;4.93;1.30;;;;;;;;;;5283616;28;20050;-70
2023/05/25 14:31:38;;;;;;;5.63;1.42;;;;;;;;;;5282637;28;20021;-70
2023/05/25 14:34:09;;;;;;;6.00;1.60;;;;;;;;;;5283695;28;20267;-71
2023/05/25 14:36:41;;;;;;;4.93;1.52;;;;;;;;;;5283331;28;20626;-71
2023/05/25 14:39:12;;;;;;;7.10;1.48;;;;;;;;;;5282858;28;20653;-70
2023/05/25 14:41:43;;;;;;;7.37;1.90;;;;;;;;;;5283312;28;20372;-70
2023/05/25 14:44:15;;;;;;;4.70;1.48;;;;;;;;;;5283072;28;20386;-70
2023/05/25 14:46:46;;;;;;;3.92;1.30;;;;;;;;;;5283017;28;20065;-70
2023/05/25 14:49:17;;;;;;;8.17;1.20;;;;;;;;;;5283342;28;20522;-71
2023/05/25 14:51:51;;;;;;;5.03;1.05;;;;;;;;;;5281843;28;20633;-70
2023/05/25 14:54:22;;;;;;;6.28;1.95;;;;;;;;;;5283682;28;20095;-71
2023/05/25 14:56:54;;;;;;;7.40;1.30;;;;;;;;;;5282347;28;20158;-71
2023/05/25 14:59:25;;;;;;;5.65;1.65;;;;;;;;;;5282093;28;20286;-71
2023/05/25 15:01:56;;;;;;;5.15;1.77;;;;;;;;;;5282724;28;20169;-70
2023/05/25 15:04:29;;;;;;;7.37;1.70;;;;;;;;;;5283418;28;20602;-71
2023/05/25 15:07:00;;;;;;;4.05;1.55;;;;;;;;;;5282173;28;20299;-72
2023/05/25 15:09:32;;;;;;;6.15;1.55;;;;;;;;;;5282815;28;20075;-72
2023/05/25 15:12:06;;;;;;;3.97;1.45;;;;;;;;;;5282954;28;20025;-72
2023/05/25 15:14:39;;;;;;;6.47;1.90;;;;;;;;;;5281951;28;20424;-71